Time;durP1;ratioP1;P1;durP2;ratioP2;P2;SDS_P1;SDS_P2;PMS_P1;PMS_P2;Temp;Humidity;BMP_temperature;BMP_pressure;BME280_temperature;BME280_humidity;BME280_pressure;Samples;Min_cycle;Max_cycle;Signal;HPM_P1;HPM_P2
2022/04/24 00:00:56;;;;;;;31.23;11.50;;;7.80;99.90;;;;;;6188342;23;20032;-90
2022/04/24 00:03:22;;;;;;;29.15;11.40;;;7.80;99.90;;;;;;6188648;23;20008;-91
2022/04/24 00:05:48;;;;;;;31.17;10.43;;;7.80;99.90;;;;;;6188428;23;20440;-91
2022/04/24 00:08:13;;;;;;;30.73;10.45;;;7.70;99.90;;;;;;6188935;23;20013;-91
2022/04/24 00:10:39;;;;;;;22.13;9.63;;;7.70;99.90;;;;;;6191927;23;20056;-90
2022/04/24 00:13:05;;;;;;;32.17;10.25;;;7.70;99.90;;;;;;6203467;23;20005;-89
2022/04/24 00:15:30;;;;;;;26.88;11.00;;;7.70;99.90;;;;;;6201512;23;20008;-91
2022/04/24 00:17:56;;;;;;;29.42;9.18;;;7.70;99.90;;;;;;6189609;23;20004;-90
2022/04/24 00:20:22;;;;;;;25.85;10.55;;;7.70;99.90;;;;;;6195803;23;20004;-89
2022/04/24 00:22:47;;;;;;;28.48;9.55;;;7.70;99.90;;;;;;6191928;23;20008;-90
2022/04/24 00:25:13;;;;;;;27.25;9.98;;;7.70;99.90;;;;;;6189151;23;20019;-90
2022/04/24 00:27:39;;;;;;;28.98;8.95;;;7.70;99.90;;;;;;6188089;23;20348;-90
2022/04/24 00:30:05;;;;;;;23.35;9.10;;;7.70;99.90;;;;;;6188468;23;20039;-92
2022/04/24 00:32:31;;;;;;;19.73;6.13;;;7.70;99.90;;;;;;6188360;23;20062;-90
2022/04/24 00:34:56;;;;;;;29.17;9.27;;;7.70;99.90;;;;;;6188728;23;20087;-90
2022/04/24 00:37:22;;;;;;;23.35;8.13;;;7.70;99.90;;;;;;6188154;23;20321;-91
2022/04/24 00:39:48;;;;;;;21.60;8.25;;;7.60;99.90;;;;;;6188073;23;20081;-90
2022/04/24 00:42:13;;;;;;;24.98;7.70;;;7.70;99.90;;;;;;6189203;23;20103;-90
2022/04/24 00:44:39;;;;;;;25.80;7.05;;;7.70;99.90;;;;;;6188831;23;20001;-90
2022/04/24 00:47:17;;;;;;;27.33;7.70;;;7.70;99.90;;;;;;6188821;23;20007;-89
2022/04/24 00:49:44;;;;;;;33.53;8.77;;;7.60;99.90;;;;;;6188419;23;20451;-91
2022/04/24 00:52:11;;;;;;;19.60;7.40;;;7.60;99.90;;;;;;6188356;23;20012;-89
2022/04/24 00:54:38;;;;;;;28.50;9.57;;;7.60;99.90;;;;;;6188060;23;20036;-89
2022/04/24 00:57:07;;;;;;;21.77;7.80;;;7.60;99.90;;;;;;6188044;23;20411;-91
2022/04/24 00:59:33;;;;;;;30.20;8.05;;;7.60;99.90;;;;;;6188003;23;20009;-90
2022/04/24 01:01:59;;;;;;;24.85;7.50;;;7.60;99.90;;;;;;6188223;23;20004;-90
2022/04/24 01:04:25;;;;;;;31.13;6.97;;;7.50;99.90;;;;;;6188114;23;20004;-88
2022/04/24 01:06:51;;;;;;;26.92;8.52;;;7.50;99.90;;;;;;6188735;23;20016;-90
2022/04/24 01:09:18;;;;;;;24.48;8.00;;;7.60;99.90;;;;;;6188264;23;20424;-92
2022/04/24 01:11:50;;;;;;;24.70;8.05;;;7.60;99.90;;;;;;6188330;23;20012;-90
2022/04/24 01:14:18;;;;;;;20.42;7.05;;;7.50;99.90;;;;;;6193308;23;20067;-90
2022/04/24 01:16:45;;;;;;;37.05;8.38;;;7.60;99.90;;;;;;6197423;23;20453;-90
2022/04/24 01:19:12;;;;;;;22.42;6.85;;;7.50;99.90;;;;;;6195412;23;20551;-91
2022/04/24 01:21:39;;;;;;;15.55;5.85;;;7.50;99.90;;;;;;6195332;23;20009;-88
2022/04/24 01:24:06;;;;;;;23.75;7.95;;;7.50;99.90;;;;;;6189906;23;20016;-90
2022/04/24 01:26:33;;;;;;;22.45;7.53;;;7.50;99.90;;;;;;6189496;23;20005;-90
2022/04/24 01:28:59;;;;;;;27.92;7.32;;;7.50;99.90;;;;;;6188805;23;20040;-90
2022/04/24 01:31:25;;;;;;;20.48;6.75;;;7.40;99.90;;;;;;6189240;23;20090;-91
2022/04/24 01:33:50;;;;;;;23.73;7.88;;;7.40;99.90;;;;;;6190004;23;20060;-91
2022/04/24 01:36:16;;;;;;;21.58;7.53;;;7.40;99.90;;;;;;6191168;23;20020;-90
2022/04/24 01:38:42;;;;;;;24.30;7.28;;;7.40;99.90;;;;;;6201927;23;20011;-90
2022/04/24 01:41:08;;;;;;;22.15;7.15;;;7.50;99.90;;;;;;6206718;23;20031;-90
2022/04/24 01:43:36;;;;;;;25.00;6.53;;;7.40;99.90;;;;;;6190418;23;20317;-89
2022/04/24 01:46:04;;;;;;;24.67;7.18;;;7.40;99.90;;;;;;6188949;23;20009;-90
2022/04/24 01:48:30;;;;;;;28.83;8.27;;;7.40;99.90;;;;;;6187851;23;20024;-91
2022/04/24 01:50:56;;;;;;;29.30;9.18;;;7.40;99.90;;;;;;6188025;23;20502;-90
2022/04/24 01:53:21;;;;;;;30.58;7.53;;;7.40;99.90;;;;;;6187991;23;20009;-90
2022/04/24 01:55:47;;;;;;;24.13;6.72;;;7.40;99.90;;;;;;6187899;23;20448;-91
2022/04/24 01:58:13;;;;;;;30.70;7.30;;;7.40;99.90;;;;;;6188557;23;20008;-91
2022/04/24 02:00:38;;;;;;;23.33;6.30;;;7.30;99.90;;;;;;6189440;23;20007;-90
2022/04/24 02:03:04;;;;;;;23.90;6.65;;;7.30;99.90;;;;;;6188531;23;20024;-91
2022/04/24 02:05:30;;;;;;;26.90;7.25;;;7.30;99.90;;;;;;6187544;23;20112;-90
2022/04/24 02:07:56;;;;;;;22.15;5.82;;;7.30;99.90;;;;;;6187722;23;20051;-90
2022/04/24 02:10:21;;;;;;;37.40;9.52;;;7.30;99.90;;;;;;6215982;23;20020;-91
2022/04/24 02:12:47;;;;;;;34.35;6.45;;;7.30;99.90;;;;;;6189592;23;20075;-90
2022/04/24 02:15:13;;;;;;;32.40;5.72;;;7.30;99.90;;;;;;6189669;23;20047;-89
2022/04/24 02:17:38;;;;;;;21.70;6.15;;;7.20;99.90;;;;;;6188377;23;20021;-90
2022/04/24 02:20:05;;;;;;;20.27;4.60;;;7.20;99.90;;;;;;6187865;23;20344;-91
2022/04/24 02:22:32;;;;;;;23.67;6.20;;;7.20;99.90;;;;;;6187528;23;20488;-91
2022/04/24 02:24:58;;;;;;;20.88;6.15;;;7.20;99.90;;;;;;6187541;23;20032;-91
2022/04/24 02:27:24;;;;;;;21.73;6.03;;;7.20;99.90;;;;;;6187289;23;20008;-91
2022/04/24 02:29:50;;;;;;;23.42;5.30;;;7.10;99.90;;;;;;6187257;23;20329;-91
2022/04/24 02:32:15;;;;;;;18.75;4.97;;;7.10;99.90;;;;;;6187704;23;20012;-92
2022/04/24 02:34:41;;;;;;;26.83;5.72;;;7.10;99.90;;;;;;6189079;23;20387;-92
2022/04/24 02:37:07;;;;;;;27.25;5.75;;;7.10;99.90;;;;;;6189098;23;20024;-91
2022/04/24 02:39:32;;;;;;;27.23;5.95;;;7.10;99.90;;;;;;6189524;23;20462;-91
2022/04/24 02:41:58;;;;;;;23.95;4.63;;;7.10;99.90;;;;;;6190202;23;20012;-91
2022/04/24 02:44:24;;;;;;;20.45;4.82;;;7.10;99.90;;;;;;6190955;23;20012;-91
2022/04/24 02:46:49;;;;;;;26.50;5.22;;;7.10;99.90;;;;;;6191240;23;20509;-91
2022/04/24 02:49:15;;;;;;;17.05;4.75;;;7.00;99.90;;;;;;6189402;23;20020;-92
2022/04/24 02:51:41;;;;;;;22.70;5.32;;;7.00;99.90;;;;;;6190411;23;20043;-91
2022/04/24 02:54:06;;;;;;;23.05;5.32;;;7.00;99.90;;;;;;6189860;23;20031;-90
2022/04/24 02:56:32;;;;;;;27.45;5.20;;;7.00;99.90;;;;;;6202814;23;20019;-92
2022/04/24 02:58:58;;;;;;;20.50;4.82;;;7.00;99.90;;;;;;6192274;23;20012;-92
2022/04/24 03:01:23;;;;;;;24.15;5.10;;;7.00;99.90;;;;;;6190698;23;20440;-91
2022/04/24 03:03:52;;;;;;;20.38;5.10;;;7.00;99.90;;;;;;6191289;23;20001;-92
2022/04/24 03:06:18;;;;;;;20.48;5.65;;;7.00;99.90;;;;;;6191027;23;20005;-90
2022/04/24 03:08:46;;;;;;;11.68;3.92;;;7.00;99.90;;;;;;6191330;23;20398;-90
2022/04/24 03:11:12;;;;;;;26.50;5.95;;;7.00;99.90;;;;;;6190704;23;20005;-90
2022/04/24 03:13:38;;;;;;;20.98;4.32;;;7.00;99.90;;;;;;6190942;23;20095;-91
2022/04/24 03:16:03;;;;;;;23.60;6.43;;;7.00;99.90;;;;;;6190649;23;20013;-91
2022/04/24 03:18:29;;;;;;;22.80;5.95;;;6.90;99.90;;;;;;6189564;23;20012;-91
2022/04/24 03:20:55;;;;;;;31.10;6.50;;;6.90;99.90;;;;;;6189185;23;20088;-91
2022/04/24 03:23:20;;;;;;;28.23;5.90;;;6.90;99.90;;;;;;6188965;23;20009;-90
2022/04/24 03:25:46;;;;;;;23.67;6.40;;;6.90;99.90;;;;;;6190623;23;20036;-90
2022/04/24 03:28:12;;;;;;;21.27;5.65;;;6.90;99.90;;;;;;6196296;23;20012;-91
2022/04/24 03:30:38;;;;;;;24.83;5.38;;;6.90;99.90;;;;;;6198829;23;20009;-90
2022/04/24 03:33:03;;;;;;;26.42;6.25;;;6.90;99.90;;;;;;6214932;23;20011;-91
2022/04/24 03:35:29;;;;;;;26.50;5.65;;;6.90;99.90;;;;;;6188989;23;20032;-92
2022/04/24 03:37:55;;;;;;;32.42;5.15;;;6.90;99.90;;;;;;6188381;23;20032;-91
2022/04/24 03:40:21;;;;;;;20.75;6.07;;;6.80;99.90;;;;;;6188638;23;19997;-91
2022/04/24 03:42:46;;;;;;;22.67;4.43;;;6.90;99.90;;;;;;6188513;23;20020;-91
2022/04/24 03:45:12;;;;;;;20.30;5.05;;;6.80;99.90;;;;;;6188873;23;20439;-89
2022/04/24 03:47:39;;;;;;;29.48;4.75;;;6.80;99.90;;;;;;6188866;23;20008;-91
2022/04/24 03:50:05;;;;;;;23.58;6.15;;;6.80;99.90;;;;;;6188941;23;20370;-90
2022/04/24 03:52:31;;;;;;;16.13;5.50;;;6.80;99.90;;;;;;6188569;23;20348;-89
2022/04/24 03:54:57;;;;;;;18.42;4.70;;;6.70;99.90;;;;;;6191911;23;20028;-89
2022/04/24 03:57:23;;;;;;;24.95;4.93;;;6.80;99.90;;;;;;6199603;23;20080;-90
2022/04/24 03:59:49;;;;;;;26.90;5.00;;;6.70;99.90;;;;;;6198973;23;20012;-91
2022/04/24 04:02:16;;;;;;;16.75;4.30;;;6.70;99.90;;;;;;6195500;23;20031;-91
2022/04/24 04:04:41;;;;;;;16.60;3.17;;;6.70;99.90;;;;;;6191234;23;20024;-89
2022/04/24 04:07:07;;;;;;;30.42;5.55;;;6.70;99.90;;;;;;6189556;23;20429;-91
2022/04/24 04:09:33;;;;;;;26.38;5.07;;;6.70;99.90;;;;;;6189177;23;20302;-92
2022/04/24 04:11:59;;;;;;;20.65;4.22;;;6.70;99.90;;;;;;6193734;23;20012;-91
2022/04/24 04:14:25;;;;;;;14.60;5.32;;;6.70;99.90;;;;;;6204182;23;19992;-92
2022/04/24 04:16:50;;;;;;;24.48;6.28;;;6.70;99.90;;;;;;6217796;23;20040;-91
2022/04/24 04:19:17;;;;;;;22.83;4.45;;;6.70;99.90;;;;;;6190110;23;20009;-91
2022/04/24 04:21:45;;;;;;;20.67;5.38;;;6.70;99.90;;;;;;6189913;23;20009;-92
2022/04/24 04:24:12;;;;;;;26.40;5.28;;;6.70;99.90;;;;;;6190063;23;20467;-91
2022/04/24 04:26:38;;;;;;;18.17;4.63;;;6.70;99.90;;;;;;6189710;23;20007;-89
2022/04/24 04:29:04;;;;;;;23.00;5.32;;;6.70;99.90;;;;;;6189168;23;20047;-90
2022/04/24 04:31:30;;;;;;;19.38;6.60;;;6.70;99.90;;;;;;6188885;23;20405;-92
2022/04/24 04:33:55;;;;;;;15.55;4.38;;;6.70;99.90;;;;;;6189040;23;20015;-91
2022/04/24 04:36:21;;;;;;;31.25;6.18;;;6.80;99.90;;;;;;6188874;23;20024;-91
2022/04/24 04:38:47;;;;;;;22.30;5.10;;;6.80;99.90;;;;;;6188404;23;20399;-91
2022/04/24 04:41:12;;;;;;;21.48;5.55;;;6.80;99.90;;;;;;6188560;23;20001;-91
2022/04/24 04:43:38;;;;;;;23.02;4.57;;;6.80;99.90;;;;;;6188211;23;20000;-91
2022/04/24 04:46:04;;;;;;;28.88;4.95;;;6.80;99.90;;;;;;6188813;23;20004;-90
2022/04/24 04:48:31;;;;;;;24.13;4.72;;;6.80;99.90;;;;;;6191736;23;20468;-91
2022/04/24 04:50:56;;;;;;;27.42;5.55;;;6.80;99.90;;;;;;6189543;23;20058;-90
2022/04/24 04:53:22;;;;;;;14.75;5.20;;;6.80;99.90;;;;;;6192193;23;20428;-90
2022/04/24 04:55:48;;;;;;;20.38;5.38;;;6.80;99.90;;;;;;6187964;23;20031;-91
2022/04/24 04:58:14;;;;;;;26.88;4.60;;;6.80;99.90;;;;;;6187989;23;20005;-90
2022/04/24 05:00:40;;;;;;;34.55;5.85;;;6.80;99.90;;;;;;6188127;23;20428;-90
2022/04/24 05:03:06;;;;;;;26.08;6.53;;;6.80;99.90;;;;;;6188070;23;20410;-90
2022/04/24 05:05:32;;;;;;;21.45;6.18;;;6.80;99.90;;;;;;6188207;23;20448;-90
2022/04/24 05:07:58;;;;;;;20.90;7.22;;;6.80;99.90;;;;;;6188465;23;20150;-90
2022/04/24 05:10:24;;;;;;;21.33;5.80;;;6.80;99.90;;;;;;6189254;23;20008;-90
2022/04/24 05:12:50;;;;;;;34.63;9.15;;;6.80;99.90;;;;;;6188928;23;20365;-90
2022/04/24 05:15:16;;;;;;;34.03;7.80;;;6.80;99.90;;;;;;6189219;23;20424;-90
2022/04/24 05:17:43;;;;;;;23.13;7.68;;;6.80;99.90;;;;;;6198332;23;20512;-89
2022/04/24 05:20:10;;;;;;;30.90;7.82;;;6.80;99.90;;;;;;6193132;23;20518;-90
2022/04/24 05:22:37;;;;;;;24.25;8.55;;;6.80;99.90;;;;;;6188041;23;20066;-91
2022/04/24 05:25:05;;;;;;;23.60;7.50;;;6.80;99.90;;;;;;6187886;23;20495;-91
2022/04/24 05:27:31;;;;;;;24.63;6.38;;;6.80;99.90;;;;;;6188072;23;20326;-90
2022/04/24 05:29:58;;;;;;;23.13;6.40;;;6.80;99.90;;;;;;6189367;23;20024;-92
2022/04/24 05:32:24;;;;;;;25.38;7.05;;;6.90;99.90;;;;;;6198047;23;20016;-89
2022/04/24 05:34:50;;;;;;;19.27;6.38;;;6.90;99.90;;;;;;6189966;23;20009;-91
2022/04/24 05:37:15;;;;;;;25.48;6.63;;;6.90;99.90;;;;;;6188386;23;20023;-90
2022/04/24 05:39:41;;;;;;;22.85;5.68;;;6.90;99.90;;;;;;6188214;23;20079;-90
2022/04/24 05:42:07;;;;;;;20.80;6.43;;;6.90;99.90;;;;;;6188358;23;20032;-90
2022/04/24 05:44:33;;;;;;;27.45;5.53;;;6.90;99.90;;;;;;6188308;23;20063;-91
2022/04/24 05:46:59;;;;;;;34.75;9.50;;;7.00;99.90;;;;;;6188986;23;20124;-90
2022/04/24 05:49:25;;;;;;;23.88;5.72;;;7.00;99.90;;;;;;6187675;23;20070;-90
2022/04/24 05:51:50;;;;;;;21.02;6.57;;;7.00;99.90;;;;;;6188244;23;20413;-91
2022/04/24 05:54:16;;;;;;;37.47;7.28;;;7.00;99.90;;;;;;6187924;23;20040;-89
2022/04/24 05:56:42;;;;;;;33.88;7.15;;;7.10;99.90;;;;;;6188059;23;20048;-90
2022/04/24 05:59:08;;;;;;;25.67;6.95;;;7.10;99.90;;;;;;6188117;23;20009;-90
2022/04/24 06:01:35;;;;;;;25.75;6.85;;;7.10;99.90;;;;;;6187628;23;20011;-91
2022/04/24 06:04:00;;;;;;;25.30;7.15;;;7.10;99.90;;;;;;6189530;23;20305;-91
2022/04/24 06:06:29;;;;;;;25.48;6.53;;;7.20;99.90;;;;;;6189521;23;20020;-90
2022/04/24 06:08:54;;;;;;;22.38;6.50;;;7.20;99.90;;;;;;6190652;23;20011;-91
2022/04/24 06:11:20;;;;;;;26.83;7.40;;;7.20;99.90;;;;;;6191331;23;20025;-90
2022/04/24 06:13:47;;;;;;;21.67;8.63;;;7.20;99.90;;;;;;6191070;23;20008;-91
2022/04/24 06:16:13;;;;;;;23.70;6.70;;;7.20;99.90;;;;;;6191989;23;20075;-91
2022/04/24 06:18:39;;;;;;;23.75;7.82;;;7.20;99.90;;;;;;6189205;23;20016;-90
2022/04/24 06:21:04;;;;;;;29.85;7.43;;;7.30;99.90;;;;;;6190543;23;20154;-91
2022/04/24 06:23:31;;;;;;;20.50;6.82;;;7.30;99.90;;;;;;6189852;23;20063;-91
2022/04/24 06:25:58;;;;;;;30.75;7.30;;;7.40;99.90;;;;;;6189702;23;20012;-90
2022/04/24 06:28:24;;;;;;;22.42;6.15;;;7.40;99.90;;;;;;6190162;23;20020;-90
2022/04/24 06:30:50;;;;;;;21.75;6.88;;;7.40;99.90;;;;;;6191850;23;20011;-90
2022/04/24 06:33:17;;;;;;;27.10;6.97;;;7.40;99.90;;;;;;6191132;23;20004;-91
2022/04/24 06:35:45;;;;;;;21.75;7.60;;;7.50;99.90;;;;;;6191631;23;20005;-91
2022/04/24 06:38:11;;;;;;;26.05;6.88;;;7.50;99.90;;;;;;6193518;23;20004;-90
2022/04/24 06:40:37;;;;;;;22.05;6.35;;;7.60;99.90;;;;;;6198240;23;20005;-90
2022/04/24 06:43:05;;;;;;;18.63;6.95;;;7.60;99.90;;;;;;6201660;23;20005;-92
2022/04/24 06:45:39;;;;;;;24.50;7.28;;;7.60;99.90;;;;;;6199181;23;20020;-90
2022/04/24 06:48:16;;;;;;;29.65;8.82;;;7.60;99.90;;;;;;6203280;23;20027;-91
2022/04/24 06:50:45;;;;;;;22.83;7.72;;;7.70;99.90;;;;;;6196745;23;20008;-90
2022/04/24 06:53:13;;;;;;;24.95;7.22;;;7.80;99.90;;;;;;6221077;23;20004;-91
2022/04/24 06:55:41;;;;;;;20.42;7.57;;;7.80;99.90;;;;;;6195115;23;20005;-92
2022/04/24 06:58:08;;;;;;;27.95;7.57;;;7.80;99.90;;;;;;6193678;23;20013;-91
2022/04/24 07:00:36;;;;;;;25.15;8.30;;;7.80;99.90;;;;;;6193817;23;20027;-93
2022/04/24 07:03:21;;;;;;;33.83;10.13;;;7.90;99.90;;;;;;6193787;23;20099;-90
2022/04/24 07:05:54;;;;;;;22.75;8.95;;;7.90;99.90;;;;;;6198140;23;20017;-90
2022/04/24 07:08:21;;;;;;;23.10;8.20;;;7.90;99.90;;;;;;6202330;23;20062;-91
2022/04/24 07:10:47;;;;;;;22.65;7.78;;;8.00;99.90;;;;;;6192264;23;20017;-90
2022/04/24 07:13:13;;;;;;;23.13;8.20;;;8.00;99.90;;;;;;6190519;23;20095;-91
2022/04/24 07:15:39;;;;;;;26.65;8.18;;;8.10;99.90;;;;;;6190331;23;20014;-92
2022/04/24 07:18:06;;;;;;;24.88;8.63;;;8.10;99.90;;;;;;6190683;23;20460;-91
2022/04/24 07:20:32;;;;;;;25.77;8.02;;;8.10;99.90;;;;;;6191660;23;20001;-91
2022/04/24 07:23:02;;;;;;;24.60;8.20;;;8.20;99.90;;;;;;6190370;23;20432;-91
2022/04/24 07:25:39;;;;;;;20.65;7.40;;;8.30;99.90;;;;;;6191002;23;20032;-91
2022/04/24 07:28:05;;;;;;;24.23;8.30;;;8.40;99.90;;;;;;6189312;23;20016;-91
2022/04/24 07:30:31;;;;;;;26.23;7.93;;;8.50;99.90;;;;;;6188969;23;20827;-90
2022/04/24 07:32:57;;;;;;;22.00;7.07;;;8.50;99.90;;;;;;6188430;23;20016;-90
2022/04/24 07:35:29;;;;;;;21.25;7.60;;;8.50;99.90;;;;;;6188253;23;20008;-91
2022/04/24 07:37:55;;;;;;;25.33;8.40;;;8.60;99.90;;;;;;6188266;23;20091;-90
2022/04/24 07:40:23;;;;;;;18.02;7.13;;;8.70;99.90;;;;;;6188275;23;20028;-90
2022/04/24 07:42:59;;;;;;;18.92;7.22;;;8.80;99.90;;;;;;6189322;23;20008;-89
2022/04/24 07:45:35;;;;;;;14.57;5.57;;;8.80;99.90;;;;;;6188217;23;20191;-91
2022/04/24 07:48:02;;;;;;;24.60;8.93;;;9.00;99.90;;;;;;6185582;23;20508;-92
2022/04/24 07:50:30;;;;;;;20.00;7.78;;;9.00;99.90;;;;;;6187899;23;20004;-90
2022/04/24 07:52:57;;;;;;;17.55;8.18;;;9.10;99.90;;;;;;6186538;23;20027;-90
2022/04/24 07:55:24;;;;;;;29.10;8.70;;;9.30;99.90;;;;;;6188536;23;20008;-89
2022/04/24 07:57:58;;;;;;;20.52;7.68;;;9.40;99.90;;;;;;6186366;23;20024;-90
2022/04/24 08:00:27;;;;;;;19.52;6.97;;;9.50;99.90;;;;;;6190465;23;20472;-89
2022/04/24 08:03:01;;;;;;;19.42;8.18;;;9.60;99.90;;;;;;6187980;23;20016;-90
2022/04/24 08:05:32;;;;;;;24.38;6.72;;;9.80;99.90;;;;;;6186759;23;20004;-88
2022/04/24 08:07:59;;;;;;;22.05;7.82;;;9.90;99.90;;;;;;6193522;23;20012;-89
2022/04/24 08:10:28;;;;;;;16.85;6.78;;;10.00;99.90;;;;;;6189554;23;20012;-91
2022/04/24 08:12:54;;;;;;;20.30;6.18;;;10.10;99.90;;;;;;6188864;23;20001;-92
2022/04/24 08:15:20;;;;;;;28.98;7.55;;;10.20;99.90;;;;;;6187468;23;20016;-89
2022/04/24 08:17:46;;;;;;;22.20;6.85;;;10.30;99.90;;;;;;6213485;23;20417;-90
2022/04/24 08:20:15;;;;;;;21.63;7.28;;;10.30;99.90;;;;;;6188123;23;20004;-90
2022/04/24 08:22:43;;;;;;;21.08;7.80;;;10.50;99.90;;;;;;6188720;23;20039;-90
2022/04/24 08:25:10;;;;;;;18.77;8.98;;;10.60;99.90;;;;;;6187749;23;20364;-89
2022/04/24 08:27:37;;;;;;;19.33;7.85;;;10.70;99.90;;;;;;6188225;23;20348;-92
2022/04/24 08:30:09;;;;;;;21.33;6.45;;;10.80;99.90;;;;;;6186838;23;20072;-90
2022/04/24 08:32:35;;;;;;;15.98;6.22;;;10.90;99.90;;;;;;6186475;23;20433;-86
2022/04/24 08:35:01;;;;;;;16.90;6.97;;;11.00;99.90;;;;;;6187982;23;20001;-90
2022/04/24 08:37:27;;;;;;;16.55;6.05;;;11.10;99.90;;;;;;6187918;23;20024;-90
2022/04/24 08:39:53;;;;;;;21.48;6.47;;;11.20;99.90;;;;;;6188132;23;20055;-90
2022/04/24 08:42:21;;;;;;;21.55;6.20;;;11.30;99.90;;;;;;6187687;23;20096;-90
2022/04/24 08:44:49;;;;;;;13.95;5.85;;;11.50;99.90;;;;;;6187873;23;20008;-89
2022/04/24 08:47:15;;;;;;;19.83;5.75;;;11.60;99.90;;;;;;6187636;23;20005;-90
2022/04/24 08:49:42;;;;;;;17.60;5.97;;;11.80;99.90;;;;;;6188005;23;20297;-88
2022/04/24 08:52:09;;;;;;;15.73;5.30;;;11.80;99.90;;;;;;6188356;23;20091;-89
2022/04/24 08:54:36;;;;;;;16.30;5.43;;;11.90;99.90;;;;;;6189181;23;20008;-89
2022/04/24 08:57:02;;;;;;;13.27;4.88;;;11.90;99.90;;;;;;6198245;23;20075;-90
2022/04/24 08:59:28;;;;;;;24.20;6.75;;;11.90;99.90;;;;;;6195478;23;20478;-89
2022/04/24 09:01:58;;;;;;;10.23;4.60;;;12.00;99.90;;;;;;6188451;23;20120;-89
2022/04/24 09:04:25;;;;;;;15.63;4.25;;;12.10;99.90;;;;;;6188314;23;20076;-90
2022/04/24 09:07:03;;;;;;;12.35;3.97;;;12.20;99.90;;;;;;6187931;23;20014;-90
2022/04/24 09:09:34;;;;;;;13.13;4.20;;;12.20;99.90;;;;;;6188762;23;20005;-89
2022/04/24 09:12:11;;;;;;;13.15;4.13;;;12.40;99.90;;;;;;6188864;23;20103;-90
2022/04/24 09:14:37;;;;;;;9.75;3.60;;;12.50;99.90;;;;;;6189213;23;20083;-90
2022/04/24 09:17:29;;;;;;;12.25;3.53;;;12.80;99.90;;;;;;6189336;23;20035;-89
2022/04/24 09:19:57;;;;;;;9.40;3.30;;;13.00;99.90;;;;;;6191015;23;20057;-88
2022/04/24 09:22:23;;;;;;;8.73;2.95;;;13.10;99.90;;;;;;6193040;23;20012;-91
2022/04/24 09:24:56;;;;;;;14.93;3.38;;;13.10;99.80;;;;;;6199341;23;20487;-89
2022/04/24 09:27:27;;;;;;;12.80;2.95;;;13.10;99.50;;;;;;6197071;23;20036;-90
2022/04/24 09:29:55;;;;;;;7.28;2.95;;;13.30;99.10;;;;;;6196168;23;20424;-90
2022/04/24 09:32:23;;;;;;;11.43;2.83;;;13.40;97.80;;;;;;6194003;23;20028;-89
2022/04/24 09:34:50;;;;;;;10.32;2.55;;;13.30;96.90;;;;;;6190971;23;20001;-90
2022/04/24 09:37:17;;;;;;;10.65;3.05;;;13.40;96.50;;;;;;6190128;23;20024;-91
2022/04/24 09:39:43;;;;;;;11.65;3.22;;;13.40;95.70;;;;;;6190454;23;20009;-90
2022/04/24 09:42:17;;;;;;;7.88;2.65;;;13.70;95.20;;;;;;6189482;23;20282;-90
2022/04/24 09:44:51;;;;;;;8.95;2.50;;;13.80;94.70;;;;;;6187008;23;20015;-90
2022/04/24 09:47:22;;;;;;;6.95;2.30;;;14.00;94.30;;;;;;6187845;23;20023;-90
2022/04/24 09:49:50;;;;;;;10.02;2.80;;;14.10;93.50;;;;;;6188036;23;20026;-90
2022/04/24 09:52:18;;;;;;;10.65;2.40;;;14.00;92.40;;;;;;6188625;23;20004;-89
2022/04/24 09:54:48;;;;;;;10.05;2.70;;;14.00;91.70;;;;;;6214354;23;20067;-88
2022/04/24 09:57:15;;;;;;;11.38;3.03;;;14.10;91.50;;;;;;6189120;23;20087;-89
2022/04/24 09:59:43;;;;;;;8.02;2.83;;;14.20;91.10;;;;;;6189647;23;20512;-90
2022/04/24 10:02:10;;;;;;;11.23;2.50;;;14.30;90.70;;;;;;6188552;23;20095;-89
2022/04/24 10:04:39;;;;;;;8.40;2.28;;;14.40;88.80;;;;;;6189642;23;20005;-90
2022/04/24 10:07:07;;;;;;;4.05;2.40;;;14.40;87.70;;;;;;6191024;23;20064;-89
2022/04/24 10:09:34;;;;;;;16.23;2.47;;;14.50;87.70;;;;;;6187446;23;20009;-90
2022/04/24 10:12:07;;;;;;;8.23;2.17;;;14.60;86.20;;;;;;6187686;23;20011;-89
2022/04/24 10:14:43;;;;;;;7.20;1.58;;;14.80;85.00;;;;;;6187904;23;20015;-89
2022/04/24 10:17:26;;;;;;;9.70;2.15;;;14.90;83.80;;;;;;6188356;23;20444;-89
2022/04/24 10:20:28;;;;;;;6.97;2.20;;;14.90;82.50;;;;;;6188293;23;20005;-89
2022/04/24 10:22:55;;;;;;;6.07;1.60;;;15.00;81.90;;;;;;6188248;23;20008;-90
2022/04/24 10:25:35;;;;;;;8.82;2.15;;;15.10;81.00;;;;;;6188621;23;20008;-88
2022/04/24 10:28:11;;;;;;;5.45;1.90;;;15.20;79.80;;;;;;6188301;23;20009;-90
2022/04/24 10:30:37;;;;;;;8.88;2.17;;;15.30;78.70;;;;;;6188073;23;20104;-89
2022/04/24 10:33:22;;;;;;;6.18;1.90;;;15.60;78.00;;;;;;6188122;23;20001;-89
2022/04/24 10:35:59;;;;;;;8.18;2.10;;;15.80;76.50;;;;;;6188604;23;20005;-90
2022/04/24 10:38:27;;;;;;;5.50;1.70;;;15.90;76.20;;;;;;6190209;23;20463;-90
2022/04/24 10:40:59;;;;;;;6.97;1.63;;;16.20;75.80;;;;;;6189996;23;20000;-90
2022/04/24 10:43:25;;;;;;;7.35;2.28;;;16.20;74.50;;;;;;6191301;23;20043;-90
2022/04/24 10:45:52;;;;;;;5.50;1.73;;;16.30;73.60;;;;;;6199398;23;20016;-90
2022/04/24 10:48:19;;;;;;;6.30;1.88;;;16.40;72.60;;;;;;6203396;23;20005;-92
2022/04/24 10:50:49;;;;;;;6.43;1.80;;;16.50;72.40;;;;;;6194631;23;20005;-91
2022/04/24 10:53:16;;;;;;;5.45;1.60;;;16.60;71.90;;;;;;6193487;23;20065;-92
2022/04/24 10:55:42;;;;;;;6.78;1.90;;;16.70;71.60;;;;;;6197238;23;20007;-93
2022/04/24 10:58:09;;;;;;;5.78;1.80;;;16.70;71.10;;;;;;6199937;23;20022;-92
2022/04/24 11:00:36;;;;;;;6.25;1.80;;;16.60;70.40;;;;;;6198887;23;19997;-91
2022/04/24 11:03:14;;;;;;;7.88;2.08;;;16.50;70.30;;;;;;6195955;23;20013;-92
2022/04/24 11:05:44;;;;;;;6.38;1.70;;;16.40;69.90;;;;;;6192583;23;20063;-91
2022/04/24 11:08:14;;;;;;;;;;;16.20;70.30;;;;;;6193633;23;20008;-91
2022/04/24 11:10:42;;;;;;;5.40;1.90;;;16.10;70.70;;;;;;6192741;23;20316;-89
2022/04/24 11:13:12;;;;;;;6.50;1.65;;;16.20;71.10;;;;;;6193200;23;20005;-89
2022/04/24 11:15:42;;;;;;;;;;;16.30;70.20;;;;;;6196697;23;20024;-91
2022/04/24 11:18:21;;;;;;;6.18;2.22;;;16.40;70.10;;;;;;6192676;23;19999;-91
2022/04/24 11:21:07;;;;;;;7.80;2.00;;;16.40;69.80;;;;;;6194249;23;20004;-92
2022/04/24 11:23:35;;;;;;;7.75;2.25;;;16.50;69.30;;;;;;6194479;23;20005;-91
2022/04/24 11:26:05;;;;;;;5.47;2.05;;;16.40;69.00;;;;;;6193510;23;20011;-91
2022/04/24 11:28:49;;;;;;;6.07;2.00;;;16.40;68.90;;;;;;6191255;23;20052;-93
2022/04/24 11:31:18;;;;;;;8.65;2.10;;;16.40;69.00;;;;;;6192049;23;20064;-93
2022/04/24 11:33:53;;;;;;;4.55;2.13;;;16.50;68.50;;;;;;6191534;23;20016;-90
2022/04/24 11:36:20;;;;;;;6.53;1.90;;;16.70;68.20;;;;;;6190120;23;20024;-91
2022/04/24 11:38:50;;;;;;;6.57;1.95;;;17.00;68.10;;;;;;6190037;23;20040;-89
2022/04/24 11:41:17;;;;;;;9.48;2.17;;;17.30;67.30;;;;;;6190831;23;20036;-90
2022/04/24 11:43:43;;;;;;;7.00;1.70;;;17.50;66.50;;;;;;6190542;23;20040;-91
2022/04/24 11:51:37;;;;;;;4.20;1.67;;;18.30;64.30;;;;;;6217029;23;20020;-89
2022/04/24 11:54:04;;;;;;;7.40;1.92;;;18.60;63.30;;;;;;6190766;23;20000;-91
2022/04/24 11:56:32;;;;;;;5.35;1.95;;;18.60;62.30;;;;;;6215224;23;20062;-90
2022/04/24 11:59:24;;;;;;;6.10;1.83;;;18.60;61.60;;;;;;6190595;23;20021;-90
2022/04/24 12:01:58;;;;;;;7.63;1.90;;;18.60;61.60;;;;;;6185244;23;20512;-90
2022/04/24 12:04:28;;;;;;;6.53;1.70;;;18.70;61.70;;;;;;6200634;23;20059;-90
2022/04/24 12:07:01;;;;;;;6.55;1.90;;;18.80;61.00;;;;;;6192456;23;20084;-88
2022/04/24 12:09:27;;;;;;;5.43;2.03;;;18.90;60.10;;;;;;6192343;23;20493;-93
2022/04/24 12:12:09;;;;;;;7.35;1.88;;;18.80;60.20;;;;;;6198456;23;20074;-90
2022/04/24 12:14:36;;;;;;;7.28;2.17;;;18.90;60.50;;;;;;6200699;23;20001;-92
2022/04/24 12:17:07;;;;;;;8.20;1.90;;;18.90;60.10;;;;;;6201312;23;20012;-93
2022/04/24 12:19:34;;;;;;;5.47;1.90;;;18.90;60.20;;;;;;6199494;23;20059;-90
2022/04/24 12:22:11;;;;;;;5.07;2.05;;;18.80;60.00;;;;;;6195785;23;20079;-91
2022/04/24 12:24:44;;;;;;;6.40;2.10;;;18.50;59.50;;;;;;6193452;23;20064;-89
2022/04/24 12:27:13;;;;;;;5.47;1.85;;;18.30;59.80;;;;;;6192678;23;20420;-89
2022/04/24 12:29:45;;;;;;;4.43;1.90;;;18.10;60.00;;;;;;6191925;23;20040;-91
2022/04/24 12:32:14;;;;;;;4.35;1.83;;;18.10;60.20;;;;;;6191840;23;20011;-91
2022/04/24 12:34:42;;;;;;;4.40;2.65;;;18.40;60.00;;;;;;6192084;23;20005;-90
2022/04/24 12:37:09;;;;;;;6.10;1.70;;;18.60;59.90;;;;;;6199046;23;20016;-91
2022/04/24 12:39:35;;;;;;;5.80;1.75;;;18.50;59.10;;;;;;6200982;23;20047;-90
2022/04/24 12:42:16;;;;;;;6.15;1.80;;;18.40;58.90;;;;;;6192965;23;20035;-91
2022/04/24 12:44:42;;;;;;;8.13;2.25;;;18.20;59.00;;;;;;6190831;23;20011;-91
2022/04/24 12:47:08;;;;;;;10.82;2.03;;;18.00;59.20;;;;;;6190562;23;20004;-91
2022/04/24 12:49:34;;;;;;;5.50;2.00;;;17.80;59.60;;;;;;6190657;23;20094;-92
2022/04/24 12:52:00;;;;;;;4.88;1.60;;;17.90;60.10;;;;;;6190898;23;20058;-92
2022/04/24 12:54:29;;;;;;;4.47;1.52;;;18.10;59.80;;;;;;6215126;23;20023;-91